sensor_id;sensor_type;location;lat;lon;timestamp;P1;durP1;ratioP1;P2;durP2;ratioP2
67861;SDS011;54665;51.462;6.698;2024-03-06T00:01:32;53.53;;;18.40;;
67861;SDS011;54665;51.462;6.698;2024-03-06T00:03:33;59.87;;;18.60;;
67861;SDS011;54665;51.462;6.698;2024-03-06T00:05:33;52.83;;;17.00;;
67861;SDS011;54665;51.462;6.698;2024-03-06T00:07:33;51.80;;;17.67;;
67861;SDS011;54665;51.462;6.698;2024-03-06T00:09:34;68.67;;;20.63;;
67861;SDS011;54665;51.462;6.698;2024-03-06T00:11:34;56.77;;;18.87;;
67861;SDS011;54665;51.462;6.698;2024-03-06T00:13:35;67.60;;;20.20;;
67861;SDS011;54665;51.462;6.698;2024-03-06T00:15:35;62.80;;;19.70;;
67861;SDS011;54665;51.462;6.698;2024-03-06T00:17:35;60.43;;;19.80;;
67861;SDS011;54665;51.462;6.698;2024-03-06T00:19:35;60.97;;;19.10;;
67861;SDS011;54665;51.462;6.698;2024-03-06T00:21:36;55.63;;;18.13;;
67861;SDS011;54665;51.462;6.698;2024-03-06T00:23:36;64.27;;;19.77;;
67861;SDS011;54665;51.462;6.698;2024-03-06T00:25:36;67.40;;;21.10;;
67861;SDS011;54665;51.462;6.698;2024-03-06T00:27:37;57.13;;;20.27;;
67861;SDS011;54665;51.462;6.698;2024-03-06T00:29:37;59.13;;;19.73;;
67861;SDS011;54665;51.462;6.698;2024-03-06T00:31:46;49.30;;;18.17;;
67861;SDS011;54665;51.462;6.698;2024-03-06T00:33:47;57.53;;;17.73;;
67861;SDS011;54665;51.462;6.698;2024-03-06T00:35:48;53.58;;;17.27;;
67861;SDS011;54665;51.462;6.698;2024-03-06T00:37:48;64.30;;;19.00;;
67861;SDS011;54665;51.462;6.698;2024-03-06T00:39:48;59.67;;;19.33;;
67861;SDS011;54665;51.462;6.698;2024-03-06T00:41:48;58.30;;;18.60;;
67861;SDS011;54665;51.462;6.698;2024-03-06T00:43:49;53.13;;;18.03;;
67861;SDS011;54665;51.462;6.698;2024-03-06T00:45:49;49.17;;;17.50;;
67861;SDS011;54665;51.462;6.698;2024-03-06T00:47:49;54.58;;;17.67;;
67861;SDS011;54665;51.462;6.698;2024-03-06T00:49:50;52.73;;;17.40;;
67861;SDS011;54665;51.462;6.698;2024-03-06T00:51:50;49.10;;;17.40;;
67861;SDS011;54665;51.462;6.698;2024-03-06T00:53:51;54.80;;;17.23;;
67861;SDS011;54665;51.462;6.698;2024-03-06T00:55:51;55.20;;;17.20;;
67861;SDS011;54665;51.462;6.698;2024-03-06T00:57:51;53.27;;;16.70;;
67861;SDS011;54665;51.462;6.698;2024-03-06T00:59:51;49.80;;;16.53;;
67861;SDS011;54665;51.462;6.698;2024-03-06T01:01:52;50.40;;;16.83;;
67861;SDS011;54665;51.462;6.698;2024-03-06T01:03:52;49.17;;;15.73;;
67861;SDS011;54665;51.462;6.698;2024-03-06T01:05:52;52.93;;;17.20;;
67861;SDS011;54665;51.462;6.698;2024-03-06T01:07:53;55.27;;;17.33;;
67861;SDS011;54665;51.462;6.698;2024-03-06T01:09:53;46.80;;;16.77;;
67861;SDS011;54665;51.462;6.698;2024-03-06T01:11:53;54.63;;;16.53;;
67861;SDS011;54665;51.462;6.698;2024-03-06T01:13:54;50.42;;;17.00;;
67861;SDS011;54665;51.462;6.698;2024-03-06T01:15:54;54.53;;;16.73;;
67861;SDS011;54665;51.462;6.698;2024-03-06T01:17:54;51.40;;;17.00;;
67861;SDS011;54665;51.462;6.698;2024-03-06T01:19:55;47.93;;;16.77;;
67861;SDS011;54665;51.462;6.698;2024-03-06T01:21:55;52.70;;;16.20;;
67861;SDS011;54665;51.462;6.698;2024-03-06T01:23:55;96.67;;;19.57;;
67861;SDS011;54665;51.462;6.698;2024-03-06T01:25:56;67.78;;;17.95;;
67861;SDS011;54665;51.462;6.698;2024-03-06T01:27:56;54.47;;;17.50;;
67861;SDS011;54665;51.462;6.698;2024-03-06T01:29:56;59.80;;;17.27;;
67861;SDS011;54665;51.462;6.698;2024-03-06T01:31:56;53.50;;;17.80;;
67861;SDS011;54665;51.462;6.698;2024-03-06T01:33:57;53.53;;;16.67;;
67861;SDS011;54665;51.462;6.698;2024-03-06T01:35:57;56.57;;;18.37;;
67861;SDS011;54665;51.462;6.698;2024-03-06T01:37:57;52.80;;;18.20;;
67861;SDS011;54665;51.462;6.698;2024-03-06T01:39:58;52.17;;;18.33;;
67861;SDS011;54665;51.462;6.698;2024-03-06T01:41:58;50.25;;;17.13;;
67861;SDS011;54665;51.462;6.698;2024-03-06T01:43:58;51.77;;;17.17;;
67861;SDS011;54665;51.462;6.698;2024-03-06T01:45:59;62.27;;;19.17;;
67861;SDS011;54665;51.462;6.698;2024-03-06T01:47:59;62.33;;;18.50;;
67861;SDS011;54665;51.462;6.698;2024-03-06T01:49:59;54.07;;;18.50;;
67861;SDS011;54665;51.462;6.698;2024-03-06T01:51:59;64.47;;;18.70;;
67861;SDS011;54665;51.462;6.698;2024-03-06T01:54:01;64.00;;;19.10;;
67861;SDS011;54665;51.462;6.698;2024-03-06T01:56:03;63.78;;;19.48;;
67861;SDS011;54665;51.462;6.698;2024-03-06T01:58:04;61.75;;;20.10;;
67861;SDS011;54665;51.462;6.698;2024-03-06T02:00:04;65.50;;;18.97;;
67861;SDS011;54665;51.462;6.698;2024-03-06T02:02:06;60.50;;;18.88;;
67861;SDS011;54665;51.462;6.698;2024-03-06T02:04:07;64.97;;;18.77;;
67861;SDS011;54665;51.462;6.698;2024-03-06T02:06:09;54.70;;;17.50;;
67861;SDS011;54665;51.462;6.698;2024-03-06T02:08:10;57.60;;;18.70;;
67861;SDS011;54665;51.462;6.698;2024-03-06T02:10:10;56.53;;;18.30;;
67861;SDS011;54665;51.462;6.698;2024-03-06T02:12:10;58.93;;;19.00;;
67861;SDS011;54665;51.462;6.698;2024-03-06T02:14:11;57.20;;;17.47;;
67861;SDS011;54665;51.462;6.698;2024-03-06T02:16:11;56.00;;;17.90;;
67861;SDS011;54665;51.462;6.698;2024-03-06T02:18:11;58.80;;;18.97;;
67861;SDS011;54665;51.462;6.698;2024-03-06T02:20:12;60.13;;;18.85;;
67861;SDS011;54665;51.462;6.698;2024-03-06T02:22:12;55.17;;;18.37;;
67861;SDS011;54665;51.462;6.698;2024-03-06T02:24:12;50.87;;;18.73;;
67861;SDS011;54665;51.462;6.698;2024-03-06T02:26:13;56.27;;;17.60;;
67861;SDS011;54665;51.462;6.698;2024-03-06T02:28:13;56.80;;;18.53;;
67861;SDS011;54665;51.462;6.698;2024-03-06T02:30:14;54.00;;;18.17;;
67861;SDS011;54665;51.462;6.698;2024-03-06T02:32:14;55.23;;;18.20;;
67861;SDS011;54665;51.462;6.698;2024-03-06T02:34:14;57.63;;;18.17;;
67861;SDS011;54665;51.462;6.698;2024-03-06T02:36:17;55.40;;;18.93;;
67861;SDS011;54665;51.462;6.698;2024-03-06T02:38:18;51.97;;;17.77;;
67861;SDS011;54665;51.462;6.698;2024-03-06T02:40:18;62.00;;;18.33;;
67861;SDS011;54665;51.462;6.698;2024-03-06T02:42:18;60.07;;;19.30;;
67861;SDS011;54665;51.462;6.698;2024-03-06T02:44:19;61.03;;;19.27;;
67861;SDS011;54665;51.462;6.698;2024-03-06T02:46:19;76.00;;;19.97;;
67861;SDS011;54665;51.462;6.698;2024-03-06T02:48:20;72.45;;;21.10;;
67861;SDS011;54665;51.462;6.698;2024-03-06T02:50:20;67.97;;;19.00;;
67861;SDS011;54665;51.462;6.698;2024-03-06T02:52:20;73.90;;;19.50;;
67861;SDS011;54665;51.462;6.698;2024-03-06T02:54:20;64.57;;;19.87;;
67861;SDS011;54665;51.462;6.698;2024-03-06T02:56:21;66.03;;;19.93;;
67861;SDS011;54665;51.462;6.698;2024-03-06T02:58:21;60.23;;;18.80;;
67861;SDS011;54665;51.462;6.698;2024-03-06T03:00:21;62.77;;;19.00;;
67861;SDS011;54665;51.462;6.698;2024-03-06T03:02:22;50.73;;;17.67;;
67861;SDS011;54665;51.462;6.698;2024-03-06T03:04:22;54.42;;;16.92;;
67861;SDS011;54665;51.462;6.698;2024-03-06T03:06:23;57.60;;;16.97;;
67861;SDS011;54665;51.462;6.698;2024-03-06T03:08:23;62.83;;;18.40;;
67861;SDS011;54665;51.462;6.698;2024-03-06T03:10:23;54.67;;;18.30;;
67861;SDS011;54665;51.462;6.698;2024-03-06T03:12:24;54.08;;;16.95;;
67861;SDS011;54665;51.462;6.698;2024-03-06T03:14:24;53.43;;;17.73;;
67861;SDS011;54665;51.462;6.698;2024-03-06T03:16:24;53.97;;;17.33;;
67861;SDS011;54665;51.462;6.698;2024-03-06T03:18:25;52.83;;;17.20;;
67861;SDS011;54665;51.462;6.698;2024-03-06T03:20:25;56.33;;;17.67;;
67861;SDS011;54665;51.462;6.698;2024-03-06T03:22:25;57.70;;;17.23;;
67861;SDS011;54665;51.462;6.698;2024-03-06T03:24:25;53.23;;;18.10;;
67861;SDS011;54665;51.462;6.698;2024-03-06T03:26:26;51.00;;;17.50;;
67861;SDS011;54665;51.462;6.698;2024-03-06T03:28:26;59.87;;;18.07;;
67861;SDS011;54665;51.462;6.698;2024-03-06T03:30:26;57.77;;;17.30;;
67861;SDS011;54665;51.462;6.698;2024-03-06T03:32:27;53.50;;;16.87;;
67861;SDS011;54665;51.462;6.698;2024-03-06T03:34:27;59.00;;;17.13;;
67861;SDS011;54665;51.462;6.698;2024-03-06T03:36:28;54.10;;;17.97;;
67861;SDS011;54665;51.462;6.698;2024-03-06T03:38:28;47.80;;;16.93;;
67861;SDS011;54665;51.462;6.698;2024-03-06T03:40:28;52.58;;;16.88;;
67861;SDS011;54665;51.462;6.698;2024-03-06T03:42:28;56.50;;;16.90;;
67861;SDS011;54665;51.462;6.698;2024-03-06T03:44:29;61.43;;;17.80;;
67861;SDS011;54665;51.462;6.698;2024-03-06T03:46:29;62.23;;;18.53;;
67861;SDS011;54665;51.462;6.698;2024-03-06T03:48:29;57.03;;;18.70;;
67861;SDS011;54665;51.462;6.698;2024-03-06T03:50:30;65.93;;;19.33;;
67861;SDS011;54665;51.462;6.698;2024-03-06T03:52:31;57.67;;;18.60;;
67861;SDS011;54665;51.462;6.698;2024-03-06T03:54:31;61.40;;;18.83;;
67861;SDS011;54665;51.462;6.698;2024-03-06T03:56:32;62.30;;;18.67;;
67861;SDS011;54665;51.462;6.698;2024-03-06T03:58:32;61.60;;;17.85;;
67861;SDS011;54665;51.462;6.698;2024-03-06T04:00:33;59.80;;;17.10;;
67861;SDS011;54665;51.462;6.698;2024-03-06T04:02:33;49.67;;;17.03;;
67861;SDS011;54665;51.462;6.698;2024-03-06T04:04:34;74.70;;;18.10;;
67861;SDS011;54665;51.462;6.698;2024-03-06T04:06:35;107.17;;;18.73;;
67861;SDS011;54665;51.462;6.698;2024-03-06T04:08:35;73.87;;;17.53;;
67861;SDS011;54665;51.462;6.698;2024-03-06T04:10:35;46.50;;;15.23;;
67861;SDS011;54665;51.462;6.698;2024-03-06T04:12:36;53.33;;;17.10;;
67861;SDS011;54665;51.462;6.698;2024-03-06T04:14:37;58.08;;;17.92;;
67861;SDS011;54665;51.462;6.698;2024-03-06T04:16:37;66.35;;;17.92;;
67861;SDS011;54665;51.462;6.698;2024-03-06T04:18:37;65.97;;;18.10;;
67861;SDS011;54665;51.462;6.698;2024-03-06T04:20:37;57.83;;;17.23;;
67861;SDS011;54665;51.462;6.698;2024-03-06T04:22:40;61.03;;;18.20;;
67861;SDS011;54665;51.462;6.698;2024-03-06T04:24:41;55.58;;;17.88;;
67861;SDS011;54665;51.462;6.698;2024-03-06T04:26:41;61.30;;;18.40;;
67861;SDS011;54665;51.462;6.698;2024-03-06T04:28:41;56.63;;;17.03;;
67861;SDS011;54665;51.462;6.698;2024-03-06T04:30:42;67.60;;;18.17;;
67861;SDS011;54665;51.462;6.698;2024-03-06T04:32:42;54.33;;;16.73;;
67861;SDS011;54665;51.462;6.698;2024-03-06T04:34:42;60.92;;;17.10;;
67861;SDS011;54665;51.462;6.698;2024-03-06T04:36:43;49.13;;;16.13;;
67861;SDS011;54665;51.462;6.698;2024-03-06T04:38:43;62.47;;;18.47;;
67861;SDS011;54665;51.462;6.698;2024-03-06T04:40:43;62.40;;;18.07;;
67861;SDS011;54665;51.462;6.698;2024-03-06T04:42:46;55.83;;;17.03;;
67861;SDS011;54665;51.462;6.698;2024-03-06T04:44:47;60.47;;;18.33;;
67861;SDS011;54665;51.462;6.698;2024-03-06T04:46:49;62.07;;;17.60;;
67861;SDS011;54665;51.462;6.698;2024-03-06T04:48:50;56.30;;;17.02;;
67861;SDS011;54665;51.462;6.698;2024-03-06T04:50:50;60.30;;;18.17;;
67861;SDS011;54665;51.462;6.698;2024-03-06T04:52:50;69.73;;;18.40;;
67861;SDS011;54665;51.462;6.698;2024-03-06T04:54:51;62.30;;;17.47;;
67861;SDS011;54665;51.462;6.698;2024-03-06T04:56:51;55.10;;;17.63;;
67861;SDS011;54665;51.462;6.698;2024-03-06T04:58:51;61.80;;;17.77;;
67861;SDS011;54665;51.462;6.698;2024-03-06T05:00:51;53.77;;;17.53;;
67861;SDS011;54665;51.462;6.698;2024-03-06T05:02:52;56.63;;;17.07;;
67861;SDS011;54665;51.462;6.698;2024-03-06T05:04:52;58.80;;;16.60;;
67861;SDS011;54665;51.462;6.698;2024-03-06T05:06:52;56.00;;;17.53;;
67861;SDS011;54665;51.462;6.698;2024-03-06T05:08:53;57.30;;;17.33;;
67861;SDS011;54665;51.462;6.698;2024-03-06T05:10:53;54.93;;;17.17;;
67861;SDS011;54665;51.462;6.698;2024-03-06T05:12:53;59.50;;;18.27;;
67861;SDS011;54665;51.462;6.698;2024-03-06T05:14:54;62.03;;;17.60;;
67861;SDS011;54665;51.462;6.698;2024-03-06T05:16:55;60.65;;;18.17;;
67861;SDS011;54665;51.462;6.698;2024-03-06T05:18:55;60.70;;;17.90;;
67861;SDS011;54665;51.462;6.698;2024-03-06T05:20:56;63.33;;;18.67;;
67861;SDS011;54665;51.462;6.698;2024-03-06T05:22:56;61.37;;;17.10;;
67861;SDS011;54665;51.462;6.698;2024-03-06T05:24:57;54.90;;;17.60;;
67861;SDS011;54665;51.462;6.698;2024-03-06T05:26:57;56.07;;;17.47;;
67861;SDS011;54665;51.462;6.698;2024-03-06T05:28:57;61.23;;;17.40;;
67861;SDS011;54665;51.462;6.698;2024-03-06T05:30:58;57.40;;;18.00;;
67861;SDS011;54665;51.462;6.698;2024-03-06T05:32:58;57.63;;;17.73;;
67861;SDS011;54665;51.462;6.698;2024-03-06T05:34:58;57.85;;;17.20;;
67861;SDS011;54665;51.462;6.698;2024-03-06T05:36:59;60.70;;;17.53;;
67861;SDS011;54665;51.462;6.698;2024-03-06T05:38:59;71.73;;;17.93;;
67861;SDS011;54665;51.462;6.698;2024-03-06T05:41:00;73.70;;;18.80;;
67861;SDS011;54665;51.462;6.698;2024-03-06T05:43:00;66.30;;;17.60;;
67861;SDS011;54665;51.462;6.698;2024-03-06T05:45:00;66.20;;;18.20;;
67861;SDS011;54665;51.462;6.698;2024-03-06T05:47:01;66.03;;;18.33;;
67861;SDS011;54665;51.462;6.698;2024-03-06T05:49:02;89.50;;;19.45;;
67861;SDS011;54665;51.462;6.698;2024-03-06T05:51:02;86.17;;;20.27;;
67861;SDS011;54665;51.462;6.698;2024-03-06T05:53:03;73.88;;;19.60;;
67861;SDS011;54665;51.462;6.698;2024-03-06T05:55:03;61.22;;;17.98;;
67861;SDS011;54665;51.462;6.698;2024-03-06T05:57:04;75.57;;;18.63;;
67861;SDS011;54665;51.462;6.698;2024-03-06T05:59:04;62.22;;;18.00;;
67861;SDS011;54665;51.462;6.698;2024-03-06T06:01:05;68.53;;;17.67;;
67861;SDS011;54665;51.462;6.698;2024-03-06T06:03:05;59.27;;;17.63;;
67861;SDS011;54665;51.462;6.698;2024-03-06T06:05:05;62.57;;;18.60;;
67861;SDS011;54665;51.462;6.698;2024-03-06T06:07:06;68.72;;;18.30;;
67861;SDS011;54665;51.462;6.698;2024-03-06T06:09:06;75.00;;;18.50;;
67861;SDS011;54665;51.462;6.698;2024-03-06T06:11:07;74.13;;;18.80;;
67861;SDS011;54665;51.462;6.698;2024-03-06T06:13:07;88.20;;;20.37;;
67861;SDS011;54665;51.462;6.698;2024-03-06T06:15:08;90.13;;;21.23;;
67861;SDS011;54665;51.462;6.698;2024-03-06T06:17:08;98.25;;;22.23;;
67861;SDS011;54665;51.462;6.698;2024-03-06T06:19:09;89.23;;;20.23;;
67861;SDS011;54665;51.462;6.698;2024-03-06T06:21:09;82.30;;;20.63;;
67861;SDS011;54665;51.462;6.698;2024-03-06T06:23:09;80.37;;;20.17;;
67861;SDS011;54665;51.462;6.698;2024-03-06T06:25:10;83.07;;;20.90;;
67861;SDS011;54665;51.462;6.698;2024-03-06T06:27:10;80.53;;;19.60;;
67861;SDS011;54665;51.462;6.698;2024-03-06T06:29:10;80.60;;;19.73;;
67861;SDS011;54665;51.462;6.698;2024-03-06T06:31:11;73.13;;;18.87;;
67861;SDS011;54665;51.462;6.698;2024-03-06T06:33:11;73.30;;;19.20;;
67861;SDS011;54665;51.462;6.698;2024-03-06T06:35:12;73.00;;;18.27;;
67861;SDS011;54665;51.462;6.698;2024-03-06T06:37:12;74.72;;;19.83;;
67861;SDS011;54665;51.462;6.698;2024-03-06T06:39:13;70.63;;;18.87;;
67861;SDS011;54665;51.462;6.698;2024-03-06T06:41:13;72.77;;;18.57;;
67861;SDS011;54665;51.462;6.698;2024-03-06T06:43:14;69.63;;;19.92;;
67861;SDS011;54665;51.462;6.698;2024-03-06T06:45:17;81.53;;;20.90;;
67861;SDS011;54665;51.462;6.698;2024-03-06T06:47:18;90.72;;;22.40;;
67861;SDS011;54665;51.462;6.698;2024-03-06T06:49:19;87.93;;;24.70;;
67861;SDS011;54665;51.462;6.698;2024-03-06T06:51:19;99.07;;;24.03;;
67861;SDS011;54665;51.462;6.698;2024-03-06T06:53:19;84.03;;;23.33;;
67861;SDS011;54665;51.462;6.698;2024-03-06T06:55:20;81.93;;;22.95;;
67861;SDS011;54665;51.462;6.698;2024-03-06T06:57:20;83.23;;;23.07;;
67861;SDS011;54665;51.462;6.698;2024-03-06T06:59:20;83.30;;;22.70;;
67861;SDS011;54665;51.462;6.698;2024-03-06T07:01:20;82.43;;;22.87;;
67861;SDS011;54665;51.462;6.698;2024-03-06T07:03:21;76.23;;;22.40;;
67861;SDS011;54665;51.462;6.698;2024-03-06T07:05:21;81.33;;;21.50;;
67861;SDS011;54665;51.462;6.698;2024-03-06T07:07:21;75.37;;;21.43;;
67861;SDS011;54665;51.462;6.698;2024-03-06T07:09:22;73.20;;;21.40;;
67861;SDS011;54665;51.462;6.698;2024-03-06T07:11:22;65.17;;;21.67;;
67861;SDS011;54665;51.462;6.698;2024-03-06T07:13:22;72.72;;;22.02;;
67861;SDS011;54665;51.462;6.698;2024-03-06T07:15:22;73.90;;;20.90;;
67861;SDS011;54665;51.462;6.698;2024-03-06T07:17:23;66.13;;;20.30;;
67861;SDS011;54665;51.462;6.698;2024-03-06T07:19:23;72.17;;;20.30;;
67861;SDS011;54665;51.462;6.698;2024-03-06T07:21:24;69.87;;;20.63;;
67861;SDS011;54665;51.462;6.698;2024-03-06T07:23:24;75.53;;;20.43;;
67861;SDS011;54665;51.462;6.698;2024-03-06T07:25:24;67.43;;;21.23;;
67861;SDS011;54665;51.462;6.698;2024-03-06T07:27:24;70.23;;;21.07;;
67861;SDS011;54665;51.462;6.698;2024-03-06T07:29:25;75.60;;;21.87;;
67861;SDS011;54665;51.462;6.698;2024-03-06T07:31:25;69.17;;;20.60;;
67861;SDS011;54665;51.462;6.698;2024-03-06T07:33:25;70.77;;;20.93;;
67861;SDS011;54665;51.462;6.698;2024-03-06T07:35:26;69.37;;;20.17;;
67861;SDS011;54665;51.462;6.698;2024-03-06T07:37:26;73.77;;;20.67;;
67861;SDS011;54665;51.462;6.698;2024-03-06T07:39:26;64.27;;;20.90;;
67861;SDS011;54665;51.462;6.698;2024-03-06T07:41:27;59.33;;;19.95;;
67861;SDS011;54665;51.462;6.698;2024-03-06T07:43:27;68.03;;;20.63;;
67861;SDS011;54665;51.462;6.698;2024-03-06T07:45:27;66.40;;;20.53;;
67861;SDS011;54665;51.462;6.698;2024-03-06T07:47:28;74.37;;;21.53;;
67861;SDS011;54665;51.462;6.698;2024-03-06T07:49:28;62.30;;;19.93;;
67861;SDS011;54665;51.462;6.698;2024-03-06T07:51:31;67.27;;;21.47;;
67861;SDS011;54665;51.462;6.698;2024-03-06T07:53:32;71.20;;;21.13;;
67861;SDS011;54665;51.462;6.698;2024-03-06T07:55:32;66.23;;;21.07;;
67861;SDS011;54665;51.462;6.698;2024-03-06T07:57:33;57.13;;;19.07;;
67861;SDS011;54665;51.462;6.698;2024-03-06T07:59:33;76.37;;;22.43;;
67861;SDS011;54665;51.462;6.698;2024-03-06T08:01:33;73.47;;;23.20;;
67861;SDS011;54665;51.462;6.698;2024-03-06T08:03:33;71.38;;;22.45;;
67861;SDS011;54665;51.462;6.698;2024-03-06T08:05:34;53.20;;;17.93;;
67861;SDS011;54665;51.462;6.698;2024-03-06T08:07:34;78.50;;;23.13;;
67861;SDS011;54665;51.462;6.698;2024-03-06T08:09:34;68.23;;;22.87;;
67861;SDS011;54665;51.462;6.698;2024-03-06T08:11:35;59.20;;;21.30;;
67861;SDS011;54665;51.462;6.698;2024-03-06T08:13:35;69.23;;;22.20;;
67861;SDS011;54665;51.462;6.698;2024-03-06T08:15:36;66.95;;;23.08;;
67861;SDS011;54665;51.462;6.698;2024-03-06T08:17:36;63.90;;;20.77;;
67861;SDS011;54665;51.462;6.698;2024-03-06T08:19:38;61.17;;;21.30;;
67861;SDS011;54665;51.462;6.698;2024-03-06T08:21:38;57.67;;;21.17;;
67861;SDS011;54665;51.462;6.698;2024-03-06T08:23:38;56.00;;;20.20;;
67861;SDS011;54665;51.462;6.698;2024-03-06T08:25:39;48.43;;;18.70;;
67861;SDS011;54665;51.462;6.698;2024-03-06T08:27:39;58.03;;;20.53;;
67861;SDS011;54665;51.462;6.698;2024-03-06T08:29:41;59.63;;;20.63;;
67861;SDS011;54665;51.462;6.698;2024-03-06T08:31:41;54.87;;;20.47;;
67861;SDS011;54665;51.462;6.698;2024-03-06T08:33:41;46.87;;;18.30;;
67861;SDS011;54665;51.462;6.698;2024-03-06T08:35:41;41.20;;;15.30;;
67861;SDS011;54665;51.462;6.698;2024-03-06T08:37:42;45.37;;;18.77;;
67861;SDS011;54665;51.462;6.698;2024-03-06T08:39:42;45.15;;;18.17;;
67861;SDS011;54665;51.462;6.698;2024-03-06T08:41:42;44.57;;;18.37;;
67861;SDS011;54665;51.462;6.698;2024-03-06T08:43:43;41.37;;;16.63;;
67861;SDS011;54665;51.462;6.698;2024-03-06T08:45:43;42.37;;;17.77;;
67861;SDS011;54665;51.462;6.698;2024-03-06T08:47:44;44.93;;;17.53;;
67861;SDS011;54665;51.462;6.698;2024-03-06T08:49:45;43.92;;;17.52;;
67861;SDS011;54665;51.462;6.698;2024-03-06T08:51:45;43.57;;;18.57;;
67861;SDS011;54665;51.462;6.698;2024-03-06T08:53:45;40.73;;;17.27;;
67861;SDS011;54665;51.462;6.698;2024-03-06T08:55:46;46.50;;;17.47;;
67861;SDS011;54665;51.462;6.698;2024-03-06T08:57:46;41.58;;;17.55;;
67861;SDS011;54665;51.462;6.698;2024-03-06T08:59:46;38.10;;;17.10;;
67861;SDS011;54665;51.462;6.698;2024-03-06T09:01:47;38.80;;;16.07;;
67861;SDS011;54665;51.462;6.698;2024-03-06T09:03:47;41.33;;;17.07;;
67861;SDS011;54665;51.462;6.698;2024-03-06T09:05:47;38.83;;;17.00;;
67861;SDS011;54665;51.462;6.698;2024-03-06T09:07:48;39.50;;;16.93;;
67861;SDS011;54665;51.462;6.698;2024-03-06T09:09:48;40.47;;;18.13;;
67861;SDS011;54665;51.462;6.698;2024-03-06T09:11:48;39.53;;;17.08;;
67861;SDS011;54665;51.462;6.698;2024-03-06T09:13:49;39.93;;;18.10;;
67861;SDS011;54665;51.462;6.698;2024-03-06T09:15:49;41.57;;;18.13;;
67861;SDS011;54665;51.462;6.698;2024-03-06T09:17:50;39.17;;;17.80;;
67861;SDS011;54665;51.462;6.698;2024-03-06T09:19:50;38.47;;;18.30;;
67861;SDS011;54665;51.462;6.698;2024-03-06T09:21:50;42.77;;;18.17;;
67861;SDS011;54665;51.462;6.698;2024-03-06T09:23:50;40.35;;;17.90;;
67861;SDS011;54665;51.462;6.698;2024-03-06T09:25:51;37.57;;;16.57;;
67861;SDS011;54665;51.462;6.698;2024-03-06T09:27:51;36.07;;;16.73;;
67861;SDS011;54665;51.462;6.698;2024-03-06T09:29:51;36.10;;;16.23;;
67861;SDS011;54665;51.462;6.698;2024-03-06T09:31:52;32.57;;;15.73;;
67861;SDS011;54665;51.462;6.698;2024-03-06T09:33:52;32.10;;;14.50;;
67861;SDS011;54665;51.462;6.698;2024-03-06T09:35:52;34.00;;;15.53;;
67861;SDS011;54665;51.462;6.698;2024-03-06T09:37:52;39.27;;;17.57;;
67861;SDS011;54665;51.462;6.698;2024-03-06T09:39:53;46.13;;;18.55;;
67861;SDS011;54665;51.462;6.698;2024-03-06T09:41:53;44.70;;;19.43;;
67861;SDS011;54665;51.462;6.698;2024-03-06T09:43:54;42.43;;;19.23;;
67861;SDS011;54665;51.462;6.698;2024-03-06T09:45:54;43.40;;;18.80;;
67861;SDS011;54665;51.462;6.698;2024-03-06T09:47:56;43.13;;;20.10;;
67861;SDS011;54665;51.462;6.698;2024-03-06T09:49:56;55.20;;;21.03;;
67861;SDS011;54665;51.462;6.698;2024-03-06T09:51:57;59.60;;;21.60;;
67861;SDS011;54665;51.462;6.698;2024-03-06T09:53:58;55.43;;;22.50;;
67861;SDS011;54665;51.462;6.698;2024-03-06T09:55:58;56.92;;;22.50;;
67861;SDS011;54665;51.462;6.698;2024-03-06T09:58:00;56.78;;;23.35;;
67861;SDS011;54665;51.462;6.698;2024-03-06T10:00:00;68.30;;;25.47;;
67861;SDS011;54665;51.462;6.698;2024-03-06T10:02:00;59.30;;;24.47;;
67861;SDS011;54665;51.462;6.698;2024-03-06T10:04:16;63.90;;;24.35;;
67861;SDS011;54665;51.462;6.698;2024-03-06T10:06:18;69.03;;;25.13;;
67861;SDS011;54665;51.462;6.698;2024-03-06T10:08:19;67.93;;;26.03;;
67861;SDS011;54665;51.462;6.698;2024-03-06T10:10:20;65.47;;;24.33;;
67861;SDS011;54665;51.462;6.698;2024-03-06T10:12:21;71.13;;;26.02;;
67861;SDS011;54665;51.462;6.698;2024-03-06T10:14:21;71.60;;;27.27;;
67861;SDS011;54665;51.462;6.698;2024-03-06T10:16:21;67.27;;;25.93;;
67861;SDS011;54665;51.462;6.698;2024-03-06T10:18:21;64.43;;;24.00;;
67861;SDS011;54665;51.462;6.698;2024-03-06T10:20:27;69.38;;;26.45;;
67861;SDS011;54665;51.462;6.698;2024-03-06T10:22:27;59.20;;;23.80;;
67861;SDS011;54665;51.462;6.698;2024-03-06T10:24:27;60.95;;;23.48;;
67861;SDS011;54665;51.462;6.698;2024-03-06T10:26:30;62.33;;;25.13;;
67861;SDS011;54665;51.462;6.698;2024-03-06T10:28:30;60.38;;;24.30;;
67861;SDS011;54665;51.462;6.698;2024-03-06T10:30:32;60.15;;;24.02;;
67861;SDS011;54665;51.462;6.698;2024-03-06T10:32:33;59.17;;;24.45;;
67861;SDS011;54665;51.462;6.698;2024-03-06T10:34:34;61.27;;;24.40;;
67861;SDS011;54665;51.462;6.698;2024-03-06T10:36:34;61.00;;;24.17;;
67861;SDS011;54665;51.462;6.698;2024-03-06T10:38:35;61.30;;;24.63;;
67861;SDS011;54665;51.462;6.698;2024-03-06T10:40:40;60.33;;;24.23;;
67861;SDS011;54665;51.462;6.698;2024-03-06T10:42:42;56.25;;;22.90;;
67861;SDS011;54665;51.462;6.698;2024-03-06T10:44:50;55.53;;;23.27;;
67861;SDS011;54665;51.462;6.698;2024-03-06T10:46:56;59.47;;;24.02;;
67861;SDS011;54665;51.462;6.698;2024-03-06T10:48:58;57.30;;;23.15;;
67861;SDS011;54665;51.462;6.698;2024-03-06T10:50:59;55.53;;;22.90;;
67861;SDS011;54665;51.462;6.698;2024-03-06T10:52:59;60.67;;;23.00;;
67861;SDS011;54665;51.462;6.698;2024-03-06T10:55:00;53.10;;;21.75;;
67861;SDS011;54665;51.462;6.698;2024-03-06T10:57:02;52.25;;;21.83;;
67861;SDS011;54665;51.462;6.698;2024-03-06T10:59:02;52.63;;;21.80;;
67861;SDS011;54665;51.462;6.698;2024-03-06T11:01:03;50.53;;;21.80;;
67861;SDS011;54665;51.462;6.698;2024-03-06T11:03:06;52.05;;;21.33;;
67861;SDS011;54665;51.462;6.698;2024-03-06T11:05:07;52.67;;;21.37;;
67861;SDS011;54665;51.462;6.698;2024-03-06T11:07:08;48.92;;;20.73;;
67861;SDS011;54665;51.462;6.698;2024-03-06T11:09:08;52.22;;;22.38;;
67861;SDS011;54665;51.462;6.698;2024-03-06T11:11:21;49.97;;;22.17;;
67861;SDS011;54665;51.462;6.698;2024-03-06T11:13:23;53.20;;;21.58;;
67861;SDS011;54665;51.462;6.698;2024-03-06T11:15:26;46.55;;;20.70;;
67861;SDS011;54665;51.462;6.698;2024-03-06T11:17:27;53.53;;;21.17;;
67861;SDS011;54665;51.462;6.698;2024-03-06T11:19:28;44.97;;;19.97;;
67861;SDS011;54665;51.462;6.698;2024-03-06T11:21:29;48.10;;;19.92;;
67861;SDS011;54665;51.462;6.698;2024-03-06T11:23:32;49.90;;;20.80;;
67861;SDS011;54665;51.462;6.698;2024-03-06T11:30:09;54.23;;;21.23;;
67861;SDS011;54665;51.462;6.698;2024-03-06T11:32:12;44.53;;;19.08;;
67861;SDS011;54665;51.462;6.698;2024-03-06T11:34:12;52.47;;;20.70;;
67861;SDS011;54665;51.462;6.698;2024-03-06T11:36:21;47.17;;;19.60;;
67861;SDS011;54665;51.462;6.698;2024-03-06T11:38:28;37.33;;;16.50;;
67861;SDS011;54665;51.462;6.698;2024-03-06T11:40:28;44.50;;;18.60;;
67861;SDS011;54665;51.462;6.698;2024-03-06T11:42:35;43.22;;;18.30;;
67861;SDS011;54665;51.462;6.698;2024-03-06T11:44:35;40.17;;;17.10;;
67861;SDS011;54665;51.462;6.698;2024-03-06T11:46:42;43.33;;;15.88;;
67861;SDS011;54665;51.462;6.698;2024-03-06T11:48:42;32.67;;;14.80;;
67861;SDS011;54665;51.462;6.698;2024-03-06T11:50:43;32.97;;;13.77;;